Time;durP1;ratioP1;P1;durP2;ratioP2;P2;SDS_P1;SDS_P2;PMS_P1;PMS_P2;Temp;Humidity;BMP_temperature;BMP_pressure;BME280_temperature;BME280_humidity;BME280_pressure;Samples;Min_cycle;Max_cycle;Signal;HPM_P1;HPM_P2
2022/09/09 00:02:11;;;;;;;;;2.00;1.50;;;;;18.65;58.71;100234.78;5054315;28;46428;-83
2022/09/09 00:04:39;;;;;;;;;1.00;1.00;;;;;18.65;58.86;100250.69;5054829;28;45574;-83
2022/09/09 00:07:23;;;;;;;;;2.75;1.00;;;;;18.30;58.98;100204.16;5054832;28;45398;-82
2022/09/09 00:10:19;;;;;;;;;1.00;1.00;;;;;18.61;59.35;100260.00;5053329;28;47504;-83
2022/09/09 00:13:01;;;;;;;;;1.25;1.00;;;;;18.57;59.01;100251.53;5070694;28;46595;-81
2022/09/09 00:15:41;;;;;;;;;1.00;1.00;;;;;18.54;59.10;100248.38;5056311;28;45629;-82
2022/09/09 00:18:47;;;;;;;;;1.00;1.00;;;;;18.49;59.47;100240.91;5057440;28;45542;-83
2022/09/09 00:21:15;;;;;;;;;2.00;1.00;;;;;18.53;59.77;100254.66;5055874;28;45603;-83
2022/09/09 00:23:54;;;;;;;;;0.50;0.50;;;;;18.51;59.14;100260.16;5055980;28;45880;-83
2022/09/09 00:26:35;;;;;;;;;1.75;1.00;;;;;18.50;59.48;100261.16;5039010;28;46070;-82
2022/09/09 00:32:27;;;;;;;;;3.00;1.00;;;;;18.23;59.96;100224.38;5055141;28;45555;-83
2022/09/09 00:35:25;;;;;;;;;1.00;1.00;;;;;18.38;59.87;100247.41;5055612;28;45937;-81
2022/09/09 00:37:55;;;;;;;;;2.50;2.00;;;;;18.41;60.10;100249.69;5055278;28;45523;-80
2022/09/09 00:40:31;;;;;;;;;1.75;1.00;;;;;18.37;59.88;100253.69;5055510;28;45865;-81
2022/09/09 00:43:40;;;;;;;;;3.25;2.00;;;;;18.29;59.98;100236.97;5055450;28;45785;-81
2022/09/09 00:49:46;;;;;;;;;2.00;1.00;;;;;18.33;60.35;100256.84;5055984;28;45703;-82
2022/09/09 00:52:45;;;;;;;;;1.00;1.00;;;;;18.31;60.38;100248.22;5038692;28;45562;-83
2022/09/09 00:55:40;;;;;;;;;0.50;0.00;;;;;18.28;60.58;100237.97;5056024;28;45922;-81
2022/09/09 00:58:08;;;;;;;;;1.50;1.00;;;;;18.08;60.57;100213.63;5057248;28;45765;-81
2022/09/09 01:03:59;;;;;;;;;2.00;1.00;;;;;18.22;60.78;100233.31;5057274;28;45531;-83
2022/09/09 01:06:31;;;;;;;;;0.75;0.75;;;;;18.19;61.04;100223.88;5057211;28;46219;-81
2022/09/09 01:09:21;;;;;;;;;1.50;1.00;;;;;18.22;61.46;100239.47;5057252;28;46161;-82
2022/09/09 01:11:55;;;;;;;;;1.00;1.00;;;;;18.21;61.39;100231.66;5056728;28;45673;-81
2022/09/09 01:14:32;;;;;;;;;2.00;1.75;;;;;18.20;61.44;100230.00;5056847;28;45584;-83
2022/09/09 01:17:09;;;;;;;;;1.00;0.75;;;;;18.20;61.31;100225.53;5056999;28;45592;-80
2022/09/09 01:19:41;;;;;;;;;2.00;1.00;;;;;18.21;61.26;100229.00;5057082;28;46468;-81
2022/09/09 01:22:19;;;;;;;;;1.75;1.00;;;;;18.15;61.36;100211.94;5057214;28;45794;-79
2022/09/09 01:25:06;;;;;;;;;1.75;1.50;;;;;18.22;61.66;100222.72;5057698;28;45523;-82
2022/09/09 01:27:33;;;;;;;;;2.50;2.00;;;;;18.21;61.57;100235.16;5057381;28;45888;-81
2022/09/09 01:29:59;;;;;;;;;1.75;1.00;;;;;18.14;61.22;100212.94;5056624;28;46466;-82
2022/09/09 01:32:53;;;;;;;;;3.00;2.00;;;;;18.17;61.86;100209.13;5055638;28;45688;-82
2022/09/09 01:35:37;;;;;;;;;2.00;1.75;;;;;18.06;61.45;100202.34;5055207;28;45499;-81
2022/09/09 01:38:02;;;;;;;;;1.25;1.00;;;;;18.16;62.08;100228.69;5056558;28;46296;-81
2022/09/09 01:40:27;;;;;;;;;2.50;1.00;;;;;17.92;61.53;100179.19;5056599;28;45422;-81
2022/09/09 01:42:54;;;;;;;;;3.00;2.00;;;;;18.10;61.70;100213.44;5056462;28;45609;-81
2022/09/09 01:45:21;;;;;;;;;2.00;1.25;;;;;18.15;61.96;100227.84;5056737;28;45659;-79
2022/09/09 01:47:47;;;;;;;;;2.25;2.00;;;;;18.16;61.95;100234.81;5056411;28;45636;-80
2022/09/09 01:50:15;;;;;;;;;3.00;1.50;;;;;18.09;61.68;100233.00;5056308;28;45887;-80
2022/09/09 01:52:43;;;;;;;;;1.25;1.00;;;;;18.03;61.59;100214.09;5056769;28;45727;-83
2022/09/09 01:55:10;;;;;;;;;1.00;1.00;;;;;17.98;61.82;100202.34;5057053;28;45712;-82
2022/09/09 01:57:47;;;;;;;;;1.00;1.00;;;;;18.19;61.56;100233.66;5056249;28;45608;-80
2022/09/09 02:00:14;;;;;;;;;1.50;1.00;;;;;18.20;61.80;100222.03;5056210;28;46429;-81
2022/09/09 02:03:20;;;;;;;;;2.00;1.00;;;;;18.21;61.67;100224.53;5055871;28;45655;-81
2022/09/09 02:05:58;;;;;;;;;5.00;1.00;;;;;18.09;62.07;100201.16;5056235;28;45531;-80
2022/09/09 02:08:25;;;;;;;;;2.75;1.00;;;;;18.22;62.09;100220.91;5056143;28;46594;-79
2022/09/09 02:11:13;;;;;;;;;3.00;1.75;;;;;18.10;62.38;100202.84;5055662;28;46311;-81
2022/09/09 02:13:39;;;;;;;;;0.75;0.75;;;;;18.08;62.12;100202.19;5056215;28;45847;-81
2022/09/09 02:16:05;;;;;;;;;2.25;1.25;;;;;18.17;61.84;100217.09;5056194;28;45814;-80
2022/09/09 02:18:38;;;;;;;;;1.00;1.00;;;;;18.15;62.25;100214.59;5056919;28;45545;-82
2022/09/09 02:21:05;;;;;;;;;3.00;2.00;;;;;18.14;62.26;100222.75;5057189;28;46085;-82
2022/09/09 02:23:32;;;;;;;;;2.50;1.00;;;;;17.89;61.96;100176.84;5056702;28;45562;-83
2022/09/09 02:25:58;;;;;;;;;2.50;1.00;;;;;17.96;62.14;100193.75;5071603;28;45810;-83
2022/09/09 02:28:29;;;;;;;;;3.50;1.00;;;;;18.05;62.65;100216.59;5056188;28;46839;-82
2022/09/09 02:30:55;;;;;;;;;4.75;1.25;;;;;17.89;62.30;100180.31;5056584;28;46008;-82
2022/09/09 02:33:28;;;;;;;;;2.75;1.50;;;;;17.99;62.54;100202.19;5058159;28;45447;-80
2022/09/09 02:36:01;;;;;;;;;3.00;2.00;;;;;18.01;62.58;100208.16;5055738;28;45549;-83
2022/09/09 02:38:31;;;;;;;;;5.00;2.00;;;;;17.89;62.29;100192.75;5056067;28;46559;-82
2022/09/09 02:40:58;;;;;;;;;4.00;0.50;;;;;17.67;62.58;100157.13;5055418;28;45891;-81
2022/09/09 02:43:24;;;;;;;;;2.00;0.00;;;;;17.97;62.91;100208.66;5055607;28;45700;-80
2022/09/09 02:45:55;;;;;;;;;1.00;1.00;;;;;17.97;62.90;100211.31;5055176;28;45925;-81
2022/09/09 02:48:30;;;;;;;;;1.00;1.00;;;;;17.75;62.88;100157.16;5055273;28;45526;-81
2022/09/09 02:51:29;;;;;;;;;3.00;2.00;;;;;17.81;62.63;100174.22;5055262;28;46365;-81
2022/09/09 02:54:10;;;;;;;;;2.50;1.75;;;;;17.91;62.67;100196.91;5055528;28;45800;-81
2022/09/09 02:56:41;;;;;;;;;5.00;2.75;;;;;17.84;62.85;100190.59;5055370;28;45633;-82
2022/09/09 02:59:07;;;;;;;;;2.25;1.00;;;;;17.91;62.68;100198.72;5055235;28;45698;-81
2022/09/09 03:01:33;;;;;;;;;2.50;1.75;;;;;17.89;62.84;100190.94;5053324;28;48330;-80
2022/09/09 03:03:58;;;;;;;;;3.75;1.75;;;;;17.90;62.82;100199.72;5055251;28;45721;-80
2022/09/09 03:06:24;;;;;;;;;2.00;1.00;;;;;17.86;63.29;100196.56;5055206;28;45615;-82
2022/09/09 03:08:49;;;;;;;;;2.00;2.00;;;;;17.93;63.11;100200.19;5055079;28;45533;-80
2022/09/09 03:11:16;;;;;;;;;0.00;0.00;;;;;17.82;63.15;100184.63;5055183;28;46473;-81
2022/09/09 03:13:41;;;;;;;;;2.50;1.75;;;;;17.90;63.20;100211.16;5054955;28;45732;-80
2022/09/09 03:16:06;;;;;;;;;2.00;1.00;;;;;17.82;63.23;100195.22;5053699;28;45524;-81
2022/09/09 03:18:32;;;;;;;;;3.00;2.25;;;;;17.88;63.34;100194.56;5054724;28;45635;-81
2022/09/09 03:20:59;;;;;;;;;2.50;1.00;;;;;17.65;63.63;100168.91;5054836;28;45746;-80
2022/09/09 03:23:24;;;;;;;;;2.50;1.00;;;;;17.86;63.56;100196.56;5055077;28;45659;-80
2022/09/09 03:25:51;;;;;;;;;2.00;1.00;;;;;17.72;63.22;100180.47;5054965;28;45677;-80
2022/09/09 03:28:16;;;;;;;;;2.75;1.00;;;;;17.83;63.32;100204.84;5054728;28;45593;-80
2022/09/09 03:30:42;;;;;;;;;3.00;1.25;;;;;17.71;63.25;100182.31;5052839;28;48836;-79
2022/09/09 03:33:07;;;;;;;;;3.25;2.25;;;;;17.70;63.38;100185.13;5054889;28;45569;-80
2022/09/09 03:35:32;;;;;;;;;2.50;2.00;;;;;17.78;63.35;100216.94;5054576;28;45655;-81
2022/09/09 03:37:58;;;;;;;;;4.25;1.25;;;;;17.75;63.64;100204.84;5054749;28;46406;-80
2022/09/09 03:40:23;;;;;;;;;1.25;1.25;;;;;17.35;63.68;100136.72;5054829;28;45990;-82
2022/09/09 03:42:48;;;;;;;;;3.00;2.00;;;;;17.73;63.58;100203.34;5053669;28;45627;-82
2022/09/09 03:45:14;;;;;;;;;2.00;2.00;;;;;17.36;63.62;100148.16;5054908;28;45792;-81
2022/09/09 03:51:27;;;;;;;;;3.00;2.25;;;;;17.63;63.63;100178.84;5054176;28;45687;-80
2022/09/09 03:53:55;;;;;;;;;4.75;3.50;;;;;17.69;64.17;100194.91;5053848;28;45506;-82
2022/09/09 03:56:21;;;;;;;;;0.50;0.50;;;;;17.55;64.19;100171.66;5053050;28;45848;-82
2022/09/09 03:58:46;;;;;;;;;2.25;2.00;;;;;17.48;64.10;100176.81;5052989;28;47313;-80
2022/09/09 04:01:13;;;;;;;;;1.75;1.00;;;;;17.64;64.38;100199.03;5069668;28;47290;-82
2022/09/09 04:03:39;;;;;;;;;3.25;2.00;;;;;17.52;64.06;100183.44;5054985;28;45597;-85
2022/09/09 04:06:07;;;;;;;;;2.75;2.00;;;;;17.61;64.42;100187.78;5055648;28;45463;-83
2022/09/09 04:08:33;;;;;;;;;4.00;2.00;;;;;17.62;64.02;100191.25;5054794;28;45975;-84
2022/09/09 04:11:02;;;;;;;;;3.00;2.00;;;;;17.44;64.40;100156.09;5055199;28;46010;-82
2022/09/09 04:13:27;;;;;;;;;2.00;1.25;;;;;17.53;64.30;100173.66;5054853;28;45554;-82
2022/09/09 04:16:03;;;;;;;;;3.00;2.75;;;;;17.60;64.34;100185.28;5054454;28;45781;-82
2022/09/09 04:18:29;;;;;;;;;2.00;2.00;;;;;17.59;64.52;100186.25;5054063;28;45756;-81
2022/09/09 04:20:58;;;;;;;;;1.75;1.00;;;;;17.57;64.97;100183.75;5053916;28;45980;-82
2022/09/09 04:23:27;;;;;;;;;1.25;1.00;;;;;17.37;64.87;100149.81;5054696;28;45885;-81
2022/09/09 04:25:54;;;;;;;;;2.50;1.00;;;;;17.39;64.79;100153.09;5054988;28;45872;-81
2022/09/09 04:28:22;;;;;;;;;4.00;2.00;;;;;17.57;64.86;100190.88;5055040;28;45515;-82
2022/09/09 04:30:47;;;;;;;;;2.50;1.00;;;;;17.26;64.72;100137.72;5054742;28;45483;-81
2022/09/09 04:36:35;;;;;;;;;1.25;1.25;;;;;17.48;65.27;100181.28;5054304;28;45404;-81
2022/09/09 04:39:01;;;;;;;;;4.50;2.75;;;;;17.53;64.96;100184.25;5054163;28;46843;-81
2022/09/09 04:41:26;;;;;;;;;2.25;2.00;;;;;17.45;65.52;100163.06;5054144;28;46430;-83
2022/09/09 04:43:53;;;;;;;;;2.50;2.00;;;;;17.52;65.27;100185.25;5054269;28;45567;-81
2022/09/09 04:46:19;;;;;;;;;2.25;2.25;;;;;17.50;65.16;100190.69;5054191;28;45639;-83
2022/09/09 04:48:45;;;;;;;;;2.50;2.00;;;;;17.46;65.05;100173.50;5054489;28;46680;-81
2022/09/09 04:51:13;;;;;;;;;2.00;1.00;;;;;17.47;65.19;100180.44;5053870;28;46537;-81
2022/09/09 04:53:40;;;;;;;;;2.00;1.75;;;;;17.48;65.11;100186.56;5053837;28;45730;-81
2022/09/09 04:56:13;;;;;;;;;1.00;1.00;;;;;17.18;65.42;100143.81;5053713;28;45801;-79
2022/09/09 04:58:42;;;;;;;;;4.25;2.50;;;;;17.47;65.53;100185.75;5053762;28;45632;-80
2022/09/09 05:07:52;;;;;;;;;1.50;1.00;;;;;17.30;65.55;100168.16;5054497;28;45698;-82
2022/09/09 05:10:17;;;;;;;;;4.00;3.00;;;;;17.28;64.99;100171.97;5054872;28;45578;-80
2022/09/09 05:12:51;;;;;;;;;4.25;3.00;;;;;17.46;65.49;100201.78;5037786;28;47322;-82
2022/09/09 05:15:17;;;;;;;;;6.00;5.00;;;;;17.44;65.08;100209.91;5054952;28;45770;-80
2022/09/09 05:17:42;;;;;;;;;2.75;2.00;;;;;17.16;65.10;100166.16;5055019;28;45671;-81
2022/09/09 05:20:08;;;;;;;;;2.00;2.00;;;;;17.42;65.18;100211.91;5055202;28;45670;-80
2022/09/09 05:22:34;;;;;;;;;2.50;2.00;;;;;17.19;65.07;100166.66;5038207;28;47313;-81
2022/09/09 05:25:00;;;;;;;;;3.50;2.25;;;;;17.22;65.11;100175.28;5054869;28;45645;-82
2022/09/09 05:27:25;;;;;;;;;2.00;1.00;;;;;17.42;65.05;100208.41;5054708;28;45566;-80
2022/09/09 05:29:50;;;;;;;;;3.50;3.00;;;;;17.29;65.36;100190.34;5054603;28;45628;-80
2022/09/09 05:32:16;;;;;;;;;6.25;5.75;;;;;17.48;65.60;100213.91;5054299;28;45673;-80
2022/09/09 05:34:42;;;;;;;;;3.25;2.75;;;;;17.47;65.50;100222.81;5054615;28;45810;-82
2022/09/09 05:37:07;;;;;;;;;8.00;7.00;;;;;17.48;65.55;100215.72;5054583;28;45545;-82
2022/09/09 05:39:33;;;;;;;;;4.00;3.75;;;;;17.48;65.46;100219.19;5053949;28;46601;-81
2022/09/09 05:42:02;;;;;;;;;2.50;1.75;;;;;17.49;65.31;100218.19;5055694;28;47309;-81
2022/09/09 05:44:29;;;;;;;;;4.00;3.00;;;;;17.51;65.39;100224.16;5055342;28;45696;-82
2022/09/09 05:46:54;;;;;;;;;4.00;2.75;;;;;16.98;65.68;100139.81;5056909;28;45650;-83
2022/09/09 05:49:25;;;;;;;;;3.00;3.00;;;;;17.04;65.70;100141.81;5054893;28;47671;-80
2022/09/09 05:51:51;;;;;;;;;3.75;2.50;;;;;17.19;65.69;100166.66;5055037;28;48041;-81
2022/09/09 05:54:16;;;;;;;;;3.00;3.00;;;;;17.10;65.49;100150.94;5056502;28;45617;-82
2022/09/09 05:56:42;;;;;;;;;9.75;8.00;;;;;17.54;65.59;100221.16;5057462;28;46080;-80
2022/09/09 05:59:08;;;;;;;;;6.50;5.00;;;;;17.48;65.80;100208.59;5055120;28;48876;-83
2022/09/09 06:01:36;;;;;;;;;6.00;4.00;;;;;17.57;65.80;100217.38;5056749;28;46098;-83
2022/09/09 06:07:23;;;;;;;;;3.25;2.25;;;;;17.58;66.02;100203.13;5056350;28;45544;-81
2022/09/09 06:09:48;;;;;;;;;2.50;2.00;;;;;17.63;65.93;100216.75;5071319;28;46537;-81
2022/09/09 06:12:14;;;;;;;;;3.50;2.75;;;;;17.62;65.70;100207.16;5056460;28;45740;-81
2022/09/09 06:14:39;;;;;;;;;3.00;2.00;;;;;17.44;66.23;100191.34;5057781;28;45485;-82
2022/09/09 06:17:05;;;;;;;;;3.00;3.00;;;;;17.66;66.00;100221.72;5056919;28;45850;-85
2022/09/09 06:19:30;;;;;;;;;4.00;2.00;;;;;17.60;65.94;100203.81;5060154;28;45566;-81
2022/09/09 06:21:56;;;;;;;;;2.25;2.25;;;;;17.73;65.87;100219.25;5058521;28;45589;-83
2022/09/09 06:24:22;;;;;;;;;2.50;2.50;;;;;17.67;65.34;100206.66;5058851;28;45466;-84
2022/09/09 06:26:47;;;;;;;;;3.25;3.00;;;;;17.81;65.82;100227.22;5059149;28;45612;-83
2022/09/09 06:29:12;;;;;;;;;2.75;2.00;;;;;17.81;65.49;100225.41;5055519;28;48881;-81
2022/09/09 06:31:38;;;;;;;;;3.75;3.00;;;;;17.69;65.51;100194.06;5056700;28;46144;-76
2022/09/09 06:37:26;;;;;;;;;6.75;5.75;;;;;17.78;65.16;100204.50;5056110;28;45487;-77
2022/09/09 06:39:55;;;;;;;;;4.00;3.75;;;;;17.87;65.43;100206.16;5056023;28;46395;-77
2022/09/09 06:42:20;;;;;;;;;6.00;3.25;;;;;17.99;64.83;100226.03;5056051;28;46241;-75
2022/09/09 06:44:45;;;;;;;;;2.00;2.00;;;;;17.90;65.28;100207.66;5055955;28;45589;-78
2022/09/09 06:47:11;;;;;;;;;2.00;1.25;;;;;18.00;65.60;100232.19;5054313;28;45591;-77
2022/09/09 06:49:36;;;;;;;;;2.50;2.00;;;;;18.00;65.18;100216.28;5055329;28;45622;-77
2022/09/09 06:52:02;;;;;;;;;2.75;2.75;;;;;17.85;65.11;100188.78;5055286;28;45654;-78
2022/09/09 06:54:28;;;;;;;;;2.00;2.00;;;;;18.12;65.12;100222.06;5055741;28;45645;-75
2022/09/09 06:56:53;;;;;;;;;3.50;2.50;;;;;18.16;65.03;100228.69;5055072;28;45672;-77
2022/09/09 06:59:19;;;;;;;;;4.25;3.00;;;;;18.19;64.49;100225.72;5055168;28;45632;-76
2022/09/09 07:01:44;;;;;;;;;2.00;2.00;;;;;18.23;64.73;100224.38;5054870;28;46208;-75
2022/09/09 07:07:31;;;;;;;;;2.50;1.00;;;;;18.27;64.36;100225.69;5054944;28;45659;-77
2022/09/09 07:09:57;;;;;;;;;3.50;2.50;;;;;18.35;64.33;100249.56;5054708;28;46599;-76
2022/09/09 07:12:22;;;;;;;;;2.25;1.75;;;;;18.32;64.43;100231.31;5054875;28;45651;-75
2022/09/09 07:14:48;;;;;;;;;1.75;1.00;;;;;18.42;63.89;100239.91;5054922;28;45623;-81
2022/09/09 07:17:14;;;;;;;;;4.00;2.25;;;;;18.44;64.08;100249.38;5055043;28;45575;-76
2022/09/09 07:23:01;;;;;;;;;4.25;1.50;;;;;18.56;63.82;100257.03;5054303;28;45690;-77
2022/09/09 07:25:29;;;;;;;;;2.75;2.00;;;;;18.65;63.64;100262.13;5054675;28;45599;-77
2022/09/09 07:27:56;;;;;;;;;4.00;3.00;;;;;18.70;63.33;100251.00;5054707;28;45663;-77
2022/09/09 07:30:21;;;;;;;;;2.00;1.75;;;;;18.75;63.22;100260.13;5053554;28;46629;-76
2022/09/09 07:32:47;;;;;;;;;3.00;2.00;;;;;18.81;62.57;100261.25;5054665;28;45616;-76
2022/09/09 07:35:12;;;;;;;;;4.00;2.00;;;;;18.82;62.81;100257.63;5054349;28;45954;-76
2022/09/09 07:37:38;;;;;;;;;2.25;2.00;;;;;18.85;62.28;100259.91;5054671;28;45396;-75
2022/09/09 07:40:04;;;;;;;;;3.00;2.00;;;;;18.89;62.33;100255.94;5053861;28;46266;-77
2022/09/09 07:42:29;;;;;;;;;2.00;1.50;;;;;18.93;62.60;100278.50;5054294;28;45693;-80
2022/09/09 07:44:55;;;;;;;;;2.00;1.00;;;;;18.93;62.08;100267.88;5054226;28;45616;-79
2022/09/09 07:47:21;;;;;;;;;2.00;2.00;;;;;18.87;62.12;100257.94;5054276;28;45534;-79
2022/09/09 07:53:09;;;;;;;;;2.25;2.25;;;;;18.97;62.11;100255.91;5054302;28;45959;-79
2022/09/09 07:55:34;;;;;;;;;2.25;1.75;;;;;18.89;61.94;100241.84;5054109;28;45680;-79
2022/09/09 07:57:59;;;;;;;;;2.00;2.00;;;;;18.97;61.40;100263.88;5052963;28;45527;-80
2022/09/09 08:00:27;;;;;;;;;1.75;1.00;;;;;18.88;61.57;100248.16;5054190;28;45703;-80
2022/09/09 08:02:53;;;;;;;;;1.25;1.00;;;;;19.07;61.38;100276.94;5054275;28;46048;-78
2022/09/09 08:05:19;;;;;;;;;2.75;2.00;;;;;19.10;60.88;100279.25;5054308;28;45820;-78
2022/09/09 08:07:45;;;;;;;;;2.00;1.00;;;;;19.09;61.42;100275.78;5054525;28;45722;-79
2022/09/09 08:10:10;;;;;;;;;2.00;1.00;;;;;19.14;61.28;100289.38;5054133;28;45525;-79
2022/09/09 08:12:36;;;;;;;;;1.75;1.75;;;;;19.15;60.59;100291.03;5054161;28;45588;-79
2022/09/09 08:15:01;;;;;;;;;1.25;1.00;;;;;19.12;60.89;100295.84;5054213;28;45477;-80
2022/09/09 08:17:27;;;;;;;;;1.50;1.00;;;;;19.12;60.57;100296.66;5054373;28;45741;-78
2022/09/09 08:23:14;;;;;;;;;1.50;1.00;;;;;19.07;60.54;100280.41;5053732;28;45716;-79
2022/09/09 08:25:39;;;;;;;;;2.75;0.50;;;;;19.18;60.60;100301.28;5053996;28;45554;-77
2022/09/09 08:28:04;;;;;;;;;2.00;2.00;;;;;19.22;60.63;100307.91;5054161;28;45707;-78
2022/09/09 08:30:30;;;;;;;;;2.75;2.00;;;;;19.18;60.68;100285.34;5053542;28;45566;-80
2022/09/09 08:32:55;;;;;;;;;3.50;2.00;;;;;19.31;60.55;100302.59;5054048;28;45639;-78
2022/09/09 08:38:43;;;;;;;;;3.25;1.25;;;;;19.42;59.97;100302.19;5053709;28;45577;-80
2022/09/09 08:41:34;;;;;;;;;1.00;0.00;;;;;19.45;60.03;100293.91;5056338;28;45510;-79
2022/09/09 08:44:34;;;;;;;;;2.75;1.00;;;;;19.44;59.89;100284.22;5056212;28;46869;-79
2022/09/09 08:47:08;;;;;;;;;3.50;2.00;;;;;19.56;60.21;100306.81;5056966;28;45559;-80
2022/09/09 08:49:42;;;;;;;;;2.25;1.25;;;;;19.58;59.38;100305.63;5057389;28;45600;-78
2022/09/09 08:52:27;;;;;;;;;2.00;2.00;;;;;19.51;59.82;100296.69;5057288;28;46900;-79
2022/09/09 08:54:58;;;;;;;;;2.25;1.50;;;;;19.62;59.51;100308.75;5057070;28;46115;-79
2022/09/09 08:57:28;;;;;;;;;3.25;2.00;;;;;19.62;59.04;100311.44;5057679;28;45660;-78
2022/09/09 08:59:55;;;;;;;;;3.00;2.00;;;;;19.48;59.11;100280.28;5072500;28;45830;-79
2022/09/09 09:02:49;;;;;;;;;1.00;1.00;;;;;19.68;58.92;100319.53;5057093;28;45672;-79
2022/09/09 09:05:38;;;;;;;;;1.75;1.50;;;;;19.69;59.24;100329.16;5057197;28;46239;-78
2022/09/09 09:08:33;;;;;;;;;3.25;1.25;;;;;19.66;59.17;100310.91;5057047;28;45652;-79
2022/09/09 09:11:02;;;;;;;;;3.00;1.00;;;;;19.73;58.78;100328.81;5056986;28;45904;-80
2022/09/09 09:13:50;;;;;;;;;2.00;2.00;;;;;19.74;59.34;100328.66;5056760;28;46581;-80
2022/09/09 09:16:32;;;;;;;;;2.00;2.00;;;;;19.77;58.89;100333.59;5056973;28;45713;-80
2022/09/09 09:22:41;;;;;;;;;2.00;1.00;;;;;19.82;58.91;100343.69;5056914;28;45546;-81
2022/09/09 09:25:20;;;;;;;;;1.00;1.00;;;;;19.84;58.99;100337.22;5056742;28;45835;-78
2022/09/09 09:28:01;;;;;;;;;1.75;1.00;;;;;19.87;58.78;100352.81;5056965;28;46311;-78
2022/09/09 09:30:36;;;;;;;;;2.75;1.00;;;;;19.91;58.76;100354.13;5056465;28;45609;-80
2022/09/09 09:33:11;;;;;;;;;1.00;1.00;;;;;19.91;58.42;100346.16;5056919;28;45610;-81
2022/09/09 09:39:00;;;;;;;;;0.25;0.25;;;;;19.99;58.12;100359.38;5056214;28;45756;-79
2022/09/09 09:41:39;;;;;;;;;2.50;2.00;;;;;20.02;58.25;100359.06;5056232;28;45792;-80
2022/09/09 09:44:21;;;;;;;;;1.00;1.00;;;;;20.00;58.14;100362.88;5057022;28;45725;-79
2022/09/09 09:46:46;;;;;;;;;3.00;1.00;;;;;19.96;58.37;100370.41;5056505;28;45655;-79
2022/09/09 09:49:13;;;;;;;;;3.50;1.00;;;;;19.91;58.36;100367.44;5056498;28;45762;-79
2022/09/09 09:51:40;;;;;;;;;2.00;1.00;;;;;19.90;57.91;100362.28;5055807;28;45602;-78
2022/09/09 09:54:22;;;;;;;;;1.75;1.25;;;;;19.98;58.12;100371.03;5056642;28;45734;-80
2022/09/09 09:56:48;;;;;;;;;1.00;1.00;;;;;20.05;57.86;100373.81;5055905;28;46302;-79
2022/09/09 09:59:28;;;;;;;;;1.00;1.00;;;;;20.11;57.92;100359.81;5056412;28;46433;-81
2022/09/09 10:01:54;;;;;;;;;2.50;1.75;;;;;20.19;57.92;100369.59;5056252;28;45554;-80
2022/09/09 10:04:25;;;;;;;;;2.00;2.00;;;;;20.25;57.48;100364.38;5056493;28;45601;-80
2022/09/09 10:06:51;;;;;;;;;2.75;1.50;;;;;20.25;57.54;100364.38;5071490;28;47671;-79
2022/09/09 10:09:28;;;;;;;;;0.50;0.00;;;;;20.35;57.28;100375.63;5056089;28;45531;-80
2022/09/09 10:11:57;;;;;;;;;2.25;1.50;;;;;20.35;57.14;100374.81;5055870;28;45829;-78
2022/09/09 10:14:41;;;;;;;;;1.75;1.00;;;;;20.36;56.94;100384.44;5056122;28;45689;-79
2022/09/09 10:17:19;;;;;;;;;1.00;1.00;;;;;20.40;57.27;100367.13;5055785;28;45918;-79
2022/09/09 10:20:27;;;;;;;;;2.00;1.25;;;;;20.47;56.87;100378.69;5055075;28;47540;-75
2022/09/09 10:23:11;;;;;;;;;0.50;0.50;;;;;20.51;56.66;100375.50;5054206;28;45618;-77
2022/09/09 10:25:53;;;;;;;;;1.25;1.25;;;;;20.42;56.63;100357.94;5055742;28;45497;-75
2022/09/09 10:29:00;;;;;;;;;1.25;1.25;;;;;20.59;56.56;100387.09;5055644;28;46326;-75
2022/09/09 10:31:40;;;;;;;;;1.00;1.00;;;;;20.62;56.20;100373.44;5053164;28;46212;-75
2022/09/09 10:38:06;;;;;;;;;1.50;1.25;;;;;20.65;56.47;100384.56;5053463;28;45692;-79
2022/09/09 10:40:56;;;;;;;;;1.25;1.00;;;;;20.66;56.23;100375.56;4993098;28;46967;-77
2022/09/09 10:43:43;;;;;;;;;2.75;2.00;;;;;20.71;56.24;100383.00;4993302;28;46185;-79
2022/09/09 10:46:35;;;;;;;;;2.75;1.00;;;;;20.75;56.41;100382.47;4993601;28;45916;-78
2022/09/09 10:49:04;;;;;;;;;1.50;1.50;;;;;20.77;55.99;100375.13;4993670;28;45600;-77
2022/09/09 10:52:10;;;;;;;;;1.00;1.00;;;;;20.81;55.83;100368.44;4993307;28;45778;-79
2022/09/09 10:54:59;;;;;;;;;3.00;0.50;;;;;20.87;55.80;100372.22;4993069;28;47103;-77
2022/09/09 10:57:28;;;;;;;;;2.25;1.25;;;;;20.93;55.90;100380.31;4993154;28;45863;-77
2022/09/09 11:00:03;;;;;;;;;1.75;1.00;;;;;20.94;55.80;100371.28;4993007;28;45658;-79
2022/09/09 11:02:31;;;;;;;;;1.25;1.25;;;;;20.92;55.90;100383.13;4993229;28;45677;-77
2022/09/09 11:05:07;;;;;;;;;2.75;1.75;;;;;20.71;56.45;100346.56;4997571;28;46141;-78
2022/09/09 11:07:48;;;;;;;;;2.00;1.25;;;;;20.83;56.51;100371.75;5012760;28;45602;-78
2022/09/09 11:10:42;;;;;;;;;1.75;1.00;;;;;20.89;56.53;100379.00;5012737;28;45716;-78
2022/09/09 11:13:19;;;;;;;;;2.25;1.00;;;;;20.93;56.16;100374.97;5012688;28;45634;-76
2022/09/09 11:15:51;;;;;;;;;0.00;0.00;;;;;21.04;56.43;100373.69;5012617;28;45932;-78
2022/09/09 11:18:22;;;;;;;;;1.75;1.50;;;;;21.03;55.68;100355.22;5049726;28;45733;-78
2022/09/09 11:20:51;;;;;;;;;1.25;0.75;;;;;21.08;55.62;100367.00;5054671;28;45740;-76
2022/09/09 11:23:27;;;;;;;;;0.50;0.50;;;;;21.13;55.61;100363.78;5054761;28;46761;-77
2022/09/09 11:25:57;;;;;;;;;2.50;1.75;;;;;21.05;54.98;100345.22;5054820;28;46404;-77
2022/09/09 11:28:51;;;;;;;;;1.25;0.50;;;;;21.27;54.89;100365.63;5054711;28;45682;-76
2022/09/09 11:31:33;;;;;;;;;0.00;0.00;;;;;21.32;54.81;100387.25;5054740;28;45709;-78
2022/09/09 11:37:46;;;;;;;;;1.75;1.50;;;;;21.27;53.98;100362.97;5052068;28;45780;-78
2022/09/09 11:40:22;;;;;;;;;3.00;1.00;;;;;21.19;54.01;100376.41;4991944;28;45684;-77
2022/09/09 11:42:49;;;;;;;;;1.75;1.75;;;;;21.14;55.59;100389.41;4992529;28;45680;-78
2022/09/09 11:45:21;;;;;;;;;1.00;0.25;;;;;21.02;57.17;100390.88;4992484;28;45781;-78
2022/09/09 11:47:54;;;;;;;;;1.00;1.00;;;;;20.90;57.28;100379.81;4992555;28;45825;-79
2022/09/09 11:54:02;;;;;;;;;1.75;1.00;;;;;20.68;57.64;100360.22;4992437;28;45670;-77
2022/09/09 11:56:31;;;;;;;;;2.50;0.75;;;;;20.78;57.55;100389.28;4991918;28;46239;-78
2022/09/09 11:59:05;;;;;;;;;2.25;1.00;;;;;20.74;58.51;100393.28;4991865;28;47254;-78
2022/09/09 12:01:39;;;;;;;;;1.75;1.00;;;;;20.73;58.42;100381.81;4992087;28;45675;-77
2022/09/09 12:04:28;;;;;;;;;2.25;2.00;;;;;20.77;58.00;100396.44;4992627;28;45704;-77
2022/09/09 12:10:24;;;;;;;;;1.75;1.50;;;;;20.88;58.15;100397.84;4991622;28;45944;-77
2022/09/09 12:12:49;;;;;;;;;1.25;0.75;;;;;20.93;58.02;100393.63;5003212;28;45783;-77
2022/09/09 12:15:27;;;;;;;;;2.50;1.00;;;;;21.01;57.62;100411.34;5013224;28;45739;-77
2022/09/09 12:17:55;;;;;;;;;2.00;1.75;;;;;21.01;57.46;100408.69;5047329;28;48584;-76
2022/09/09 12:20:34;;;;;;;;;1.75;1.00;;;;;20.98;57.57;100406.41;5057432;28;45560;-78
2022/09/09 12:23:31;;;;;;;;;2.50;1.75;;;;;20.91;57.40;100414.28;5057509;28;45751;-78
2022/09/09 12:26:12;;;;;;;;;1.00;0.75;;;;;20.83;58.54;100417.03;5057519;28;45628;-78
2022/09/09 12:29:01;;;;;;;;;2.25;1.75;;;;;20.76;58.70;100423.25;5057612;28;45695;-76
2022/09/09 12:31:49;;;;;;;;;3.00;1.75;;;;;20.72;59.11;100416.63;5057224;28;45623;-78
2022/09/09 12:34:22;;;;;;;;;3.00;2.25;;;;;20.72;59.44;100411.28;5057629;28;45679;-81
2022/09/09 12:36:55;;;;;;;;;3.50;2.75;;;;;20.74;59.42;100412.75;5057630;28;45525;-82
2022/09/09 12:39:37;;;;;;;;;1.75;1.75;;;;;20.61;59.51;100401.91;5057170;28;46326;-83
2022/09/09 12:42:03;;;;;;;;;2.00;2.00;;;;;20.63;59.33;100399.03;5057287;28;46391;-82
2022/09/09 12:44:30;;;;;;;;;2.75;2.00;;;;;20.60;59.34;100413.56;5057661;28;45799;-83
2022/09/09 12:46:59;;;;;;;;;2.00;2.00;;;;;20.56;59.59;100417.59;5057696;28;45490;-83
2022/09/09 12:49:40;;;;;;;;;2.75;2.00;;;;;20.52;59.45;100425.06;5057310;28;46512;-82
2022/09/09 12:52:14;;;;;;;;;1.75;1.75;;;;;20.50;59.93;100421.78;5073087;28;47186;-80
2022/09/09 12:54:46;;;;;;;;;3.00;2.00;;;;;20.49;60.26;100427.28;5061321;28;45861;-81
2022/09/09 12:57:13;;;;;;;;;1.00;1.00;;;;;20.49;59.88;100437.91;5058195;28;45692;-85